Time;durP1;ratioP1;P1;durP2;ratioP2;P2;SDS_P1;SDS_P2;PMS_P1;PMS_P2;Temp;Humidity;BMP_temperature;BMP_pressure;BME280_temperature;BME280_humidity;BME280_pressure;Samples;Min_cycle;Max_cycle;Signal;HPM_P1;HPM_P2
2023/04/13 00:02:02;;;;;;;17.33;3.20;;;;;;;6.75;100.00;99574.34;5033511;28;20045;-74
2023/04/13 00:04:30;;;;;;;18.95;3.17;;;;;;;6.71;100.00;99574.09;5047844;28;20030;-74
2023/04/13 00:06:57;;;;;;;15.68;3.25;;;;;;;6.69;100.00;99572.75;5004021;28;20529;-74
2023/04/13 00:09:24;;;;;;;14.23;2.75;;;;;;;6.65;100.00;99577.19;5036471;28;20039;-74
2023/04/13 00:11:50;;;;;;;19.10;3.17;;;;;;;6.61;100.00;99578.91;5035749;28;20033;-74
2023/04/13 00:14:17;;;;;;;18.58;3.38;;;;;;;6.54;100.00;99573.69;5052767;28;21669;-74
2023/04/13 00:16:45;;;;;;;13.13;2.42;;;;;;;6.51;100.00;99581.75;4988306;28;20034;-74
2023/04/13 00:19:11;;;;;;;18.33;3.05;;;;;;;6.44;100.00;99582.09;5017989;28;20053;-74
2023/04/13 00:21:40;;;;;;;15.40;2.72;;;;;;;6.39;100.00;99577.44;5020461;28;20025;-74
2023/04/13 00:24:06;;;;;;;20.15;3.47;;;;;;;6.38;100.00;99578.53;5036917;28;20055;-74
2023/04/13 00:26:32;;;;;;;18.55;3.22;;;;;;;6.35;100.00;99584.66;5051561;28;20021;-74
2023/04/13 00:28:57;;;;;;;19.92;3.28;;;;;;;6.32;100.00;99578.88;5003018;28;20033;-74
2023/04/13 00:31:23;;;;;;;22.02;3.25;;;;;;;6.28;100.00;99575.88;4999847;28;20029;-74
2023/04/13 00:33:48;;;;;;;13.65;3.10;;;;;;;6.25;100.00;99584.72;5032360;28;20037;-74
2023/04/13 00:36:14;;;;;;;17.55;3.30;;;;;;;6.23;100.00;99584.19;5031019;28;20394;-74
2023/04/13 00:38:43;;;;;;;19.38;3.40;;;;;;;6.19;100.00;99574.84;5032328;28;20091;-74
2023/04/13 00:41:12;;;;;;;19.42;3.35;;;;;;;6.13;100.00;99578.72;5040264;28;20028;-74
2023/04/13 00:43:38;;;;;;;17.95;3.35;;;;;;;6.12;100.00;99585.38;5038798;28;20480;-74
2023/04/13 00:46:04;;;;;;;21.88;3.25;;;;;;;6.08;100.00;99584.31;4989954;28;20258;-74
2023/04/13 00:48:29;;;;;;;20.38;3.08;;;;;;;6.06;100.00;99581.00;5021178;28;20502;-74
2023/04/13 00:50:55;;;;;;;16.80;2.70;;;;;;;6.00;100.00;99582.97;4999651;28;20123;-74
2023/04/13 00:53:21;;;;;;;22.13;3.00;;;;;;;6.01;100.00;99584.63;5045780;28;20037;-74
2023/04/13 00:55:47;;;;;;;19.05;3.92;;;;;;;5.95;100.00;99578.31;5026267;28;20580;-74
2023/04/13 00:58:12;;;;;;;14.05;2.95;;;;;;;5.95;100.00;99591.28;5018325;28;20033;-74
2023/04/13 01:00:38;;;;;;;15.82;2.42;;;;;;;5.90;100.00;99583.00;5006314;28;20045;-74
2023/04/13 01:03:03;;;;;;;17.35;3.08;;;;;;;5.87;100.00;99584.41;5052857;28;20033;-74
2023/04/13 01:05:34;;;;;;;16.52;3.03;;;;;;;5.88;100.00;99575.03;5039032;28;20075;-74
2023/04/13 01:08:31;;;;;;;16.30;3.28;;;;;;;5.80;100.00;99572.88;5034989;28;20122;-75
2023/04/13 01:11:10;;;;;;;17.42;3.00;;;;;;;5.79;100.00;99574.81;5014658;28;20037;-74
2023/04/13 01:13:40;;;;;;;16.83;3.25;;;;;;;5.75;100.00;99575.66;4993609;28;20529;-74
2023/04/13 01:16:15;;;;;;;18.33;3.40;;;;;;;5.72;100.00;99570.72;5018135;28;20672;-74
2023/04/13 01:18:42;;;;;;;16.45;3.53;;;;;;;5.70;100.00;99570.19;5035099;28;20025;-74
2023/04/13 01:21:10;;;;;;;15.68;3.47;;;;;;;5.71;100.00;99577.31;5015802;28;20026;-74
2023/04/13 01:24:04;;;;;;;16.77;2.78;;;;;;;5.66;100.00;99569.13;5032516;28;20108;-74
2023/04/13 01:26:37;;;;;;;12.52;2.45;;;;;;;5.63;100.00;99566.91;5016972;28;20513;-74
2023/04/13 01:29:03;;;;;;;17.27;2.85;;;;;;;5.63;100.00;99569.66;5022698;28;20375;-74
2023/04/13 01:31:28;;;;;;;17.27;3.13;;;;;;;5.53;100.00;99574.13;5019599;28;20087;-74
2023/04/13 01:33:54;;;;;;;12.38;3.22;;;;;;;5.51;100.00;99570.00;5021486;28;20042;-73
2023/04/13 01:36:19;;;;;;;10.50;2.53;;;;;;;5.50;100.00;99571.94;5024845;28;20025;-74
2023/04/13 01:38:45;;;;;;;23.55;3.13;;;;;;;5.47;100.00;99574.44;5018051;28;20033;-74
2023/04/13 01:41:10;;;;;;;11.27;2.38;;;;;;;5.46;100.00;99565.38;5001653;28;20033;-74
2023/04/13 01:43:36;;;;;;;11.23;2.33;;;;;;;5.43;100.00;99576.91;5018954;28;20032;-74
2023/04/13 01:46:08;;;;;;;22.25;3.30;;;;;;;5.40;100.00;99562.91;5018036;28;20452;-74
2023/04/13 01:48:47;;;;;;;13.23;3.00;;;;;;;5.38;100.00;99565.97;5022445;28;20053;-74
2023/04/13 01:51:16;;;;;;;18.35;3.10;;;;;;;5.33;100.00;99572.31;5017951;28;20065;-74
2023/04/13 01:53:43;;;;;;;12.40;2.80;;;;;;;5.33;100.00;99574.25;5035707;28;20037;-74
2023/04/13 01:56:08;;;;;;;13.15;2.40;;;;;;;5.28;100.00;99577.00;5013633;28;20045;-74
2023/04/13 01:58:34;;;;;;;14.35;2.83;;;;;;;5.27;100.00;99580.88;4985248;28;20101;-73
2023/04/13 02:00:59;;;;;;;11.68;2.40;;;;;;;5.27;100.00;99575.38;5016743;28;20091;-74
2023/04/13 02:03:25;;;;;;;12.27;2.42;;;;;;;5.22;100.00;99578.13;5017480;28;20025;-74
2023/04/13 02:05:51;;;;;;;15.05;2.58;;;;;;;5.24;100.00;99584.19;5034114;28;20064;-73
2023/04/13 02:08:17;;;;;;;16.92;2.30;;;;;;;5.19;100.00;99579.53;5014862;28;20121;-73
2023/04/13 02:10:43;;;;;;;16.50;3.00;;;;;;;5.18;100.00;99582.53;5047337;28;20071;-74
2023/04/13 02:13:08;;;;;;;22.35;3.08;;;;;;;5.13;100.00;99577.91;5044013;28;20041;-74
2023/04/13 02:15:36;;;;;;;18.65;2.60;;;;;;;5.12;100.00;99577.06;5031522;28;20088;-74
2023/04/13 02:18:04;;;;;;;15.35;2.17;;;;;;;5.10;100.00;99576.53;5036780;28;20072;-74
2023/04/13 02:20:33;;;;;;;16.95;2.88;;;;;;;5.05;100.00;99578.47;5006674;28;20395;-74
2023/04/13 02:23:00;;;;;;;16.75;2.30;;;;;;;5.04;100.00;99574.91;5021348;28;20569;-74
2023/04/13 02:25:26;;;;;;;16.25;2.75;;;;;;;5.03;100.00;99581.50;5028681;28;20033;-75
2023/04/13 02:27:52;;;;;;;17.88;2.58;;;;;;;5.02;100.00;99579.03;5030885;28;20052;-74
2023/04/13 02:30:18;;;;;;;13.48;3.08;;;;;;;5.00;100.00;99590.31;5047442;28;20537;-74
2023/04/13 02:32:46;;;;;;;11.88;2.40;;;;;;;4.99;100.00;99585.94;4998390;28;20042;-74
2023/04/13 02:35:11;;;;;;;10.30;2.58;;;;;;;4.97;100.00;99582.63;5033838;28;20026;-73
2023/04/13 02:37:40;;;;;;;22.17;3.20;;;;;;;4.93;100.00;99584.25;5017584;28;20037;-74
2023/04/13 02:40:11;;;;;;;14.50;2.70;;;;;;;4.93;100.00;99578.75;4983978;28;20042;-74
2023/04/13 02:42:37;;;;;;;19.95;2.70;;;;;;;4.90;100.00;99582.06;5037686;28;20018;-73
2023/04/13 02:45:04;;;;;;;13.50;2.35;;;;;;;4.90;100.00;99582.94;5029674;28;20034;-74
2023/04/13 02:47:30;;;;;;;18.17;3.13;;;;;;;4.89;100.00;99580.44;5042475;28;20394;-74
2023/04/13 02:49:56;;;;;;;17.48;2.60;;;;;;;4.83;100.00;99573.31;5031705;28;20129;-74
2023/04/13 02:52:22;;;;;;;19.02;2.63;;;;;;;4.82;100.00;99580.75;5030545;28;20088;-74
2023/04/13 02:54:53;;;;;;;16.95;2.53;;;;;;;4.84;100.00;99577.69;5033012;28;20029;-74
2023/04/13 02:57:22;;;;;;;18.67;2.70;;;;;;;4.78;100.00;99579.63;4999392;28;20038;-74
2023/04/13 02:59:48;;;;;;;15.48;2.28;;;;;;;4.78;100.00;99568.63;5032638;28;20112;-73
2023/04/13 03:02:14;;;;;;;16.58;2.63;;;;;;;4.76;100.00;99575.50;5050320;28;20041;-73
2023/04/13 03:04:39;;;;;;;13.18;2.40;;;;;;;4.74;100.00;99577.75;5001182;28;20026;-73
2023/04/13 03:07:09;;;;;;;11.65;2.78;;;;;;;4.72;100.00;99580.75;5001515;28;20036;-73
2023/04/13 03:09:38;;;;;;;9.07;2.00;;;;;;;4.69;100.00;99576.63;5017946;28;20037;-73
2023/04/13 03:12:06;;;;;;;20.25;3.05;;;;;;;4.66;100.00;99568.94;5034565;28;20417;-74
2023/04/13 03:14:32;;;;;;;11.13;2.05;;;;;;;4.66;100.00;99577.19;5034085;28;20117;-73
2023/04/13 03:16:57;;;;;;;17.05;2.58;;;;;;;4.63;100.00;99574.19;5036003;28;20022;-73
2023/04/13 03:19:24;;;;;;;21.05;5.50;;;;;;;4.59;100.00;99573.88;5001000;28;20030;-74
2023/04/13 03:21:51;;;;;;;14.10;3.58;;;;;;;4.54;100.00;99584.06;5011076;28;20021;-73
2023/04/13 03:24:16;;;;;;;15.40;3.85;;;;;;;4.57;100.00;99581.63;5020754;28;20390;-73
2023/04/13 03:26:42;;;;;;;17.38;4.35;;;;;;;4.50;100.00;99586.56;5051808;28;20037;-74
2023/04/13 03:29:07;;;;;;;18.80;3.88;;;;;;;4.47;100.00;99589.88;5003295;28;20034;-73
2023/04/13 03:31:33;;;;;;;18.27;4.00;;;;;;;4.44;100.00;99591.25;5031056;28;20042;-73
2023/04/13 03:33:58;;;;;;;14.43;2.95;;;;;;;4.43;100.00;99586.84;5000727;28;20497;-73
2023/04/13 03:36:26;;;;;;;14.27;2.90;;;;;;;4.42;100.00;99587.94;5034495;28;20049;-73
2023/04/13 03:38:52;;;;;;;14.25;3.17;;;;;;;4.41;100.00;99590.97;5017035;28;20093;-73
2023/04/13 03:41:18;;;;;;;15.98;3.50;;;;;;;4.39;100.00;99590.41;5046539;28;20512;-74
2023/04/13 03:43:43;;;;;;;17.15;4.18;;;;;;;4.39;100.00;99591.22;5017170;28;20388;-74
2023/04/13 03:46:09;;;;;;;14.48;3.00;;;;;;;4.35;100.00;99592.09;5017674;28;20034;-73
2023/04/13 03:48:35;;;;;;;11.40;2.83;;;;;;;4.36;100.00;99594.53;5016701;28;20046;-73
2023/04/13 03:51:00;;;;;;;15.65;3.22;;;;;;;4.32;100.00;99593.44;5033818;28;20030;-73
2023/04/13 03:53:25;;;;;;;17.38;2.72;;;;;;;4.33;100.00;99591.53;5035010;28;20053;-74
2023/04/13 03:55:51;;;;;;;14.32;2.85;;;;;;;4.30;100.00;99592.06;5033600;28;20030;-74
2023/04/13 03:58:17;;;;;;;15.40;2.83;;;;;;;4.28;100.00;99597.84;5016593;28;20030;-73
2023/04/13 04:00:43;;;;;;;14.75;2.90;;;;;;;4.29;100.00;99594.00;5034265;28;20026;-73
2023/04/13 04:03:08;;;;;;;14.68;2.95;;;;;;;4.25;100.00;99595.63;5016406;28;20471;-74
2023/04/13 04:05:35;;;;;;;15.10;3.15;;;;;;;4.20;100.00;99590.94;5046700;28;20033;-73
2023/04/13 04:08:00;;;;;;;15.93;3.20;;;;;;;4.17;100.00;99596.19;5017033;28;20029;-74
2023/04/13 04:10:26;;;;;;;19.60;3.30;;;;;;;4.16;100.00;99598.13;5043794;28;20029;-73
2023/04/13 04:12:52;;;;;;;18.25;3.05;;;;;;;4.11;100.00;99598.09;5016199;28;20029;-74
2023/04/13 04:15:17;;;;;;;20.05;4.07;;;;;;;4.14;100.00;99603.06;5047003;28;20037;-73
2023/04/13 04:17:43;;;;;;;12.90;2.45;;;;;;;4.11;100.00;99597.28;4988330;28;20522;-73
2023/04/13 04:20:09;;;;;;;18.35;3.25;;;;;;;4.08;100.00;99601.41;5004845;28;20738;-73
2023/04/13 04:22:35;;;;;;;15.70;2.92;;;;;;;4.05;100.00;99610.19;5050484;28;20482;-73
2023/04/13 04:25:00;;;;;;;12.85;3.03;;;;;;;4.05;100.00;99606.63;5009807;28;20038;-73
2023/04/13 04:27:26;;;;;;;25.27;4.03;;;;;;;4.03;100.00;99606.88;5018535;28;20108;-73
2023/04/13 04:29:52;;;;;;;13.70;3.05;;;;;;;3.99;100.00;99603.06;5035872;28;20029;-73
2023/04/13 04:32:18;;;;;;;13.68;3.22;;;;;;;3.97;100.00;99603.31;5003101;28;20029;-73
2023/04/13 04:34:45;;;;;;;15.60;3.03;;;;;;;3.98;100.00;99604.97;5003241;28;20038;-73
2023/04/13 04:37:12;;;;;;;19.85;2.97;;;;;;;3.96;100.00;99600.84;5032454;28;20033;-74
2023/04/13 04:39:43;;;;;;;12.73;3.35;;;;;;;3.93;100.00;99601.41;5003155;28;20116;-73
2023/04/13 04:42:09;;;;;;;12.68;2.70;;;;;;;3.92;100.00;99605.22;5052251;28;20030;-73
2023/04/13 04:44:36;;;;;;;14.52;2.85;;;;;;;3.88;100.00;99606.88;5040115;28;20029;-73
2023/04/13 04:47:03;;;;;;;12.30;2.75;;;;;;;3.89;100.00;99603.84;5019230;28;20390;-73
2023/04/13 04:49:28;;;;;;;14.20;2.75;;;;;;;3.85;100.00;99607.44;4984375;28;20045;-73
2023/04/13 04:51:54;;;;;;;14.43;2.65;;;;;;;3.83;100.00;99613.19;5033939;28;20044;-74
2023/04/13 04:54:20;;;;;;;18.50;3.15;;;;;;;3.81;100.00;99610.69;5002816;28;20033;-73
2023/04/13 04:56:47;;;;;;;9.25;2.28;;;;;;;3.80;100.00;99609.03;5018656;28;20064;-73
2023/04/13 04:59:12;;;;;;;14.05;3.13;;;;;;;3.77;100.00;99608.78;5001530;28;20072;-73
2023/04/13 05:01:38;;;;;;;11.93;3.28;;;;;;;3.71;100.00;99602.44;5015648;28;20101;-73
2023/04/13 05:04:04;;;;;;;13.43;2.58;;;;;;;3.79;100.00;99601.91;5048233;28;20041;-74
2023/04/13 05:06:33;;;;;;;13.27;2.50;;;;;;;3.72;100.00;99598.59;5002883;28;20029;-73
2023/04/13 05:09:00;;;;;;;9.20;2.25;;;;;;;3.70;100.00;99602.69;5023455;28;20068;-73
2023/04/13 05:11:29;;;;;;;15.15;2.53;;;;;;;3.66;100.00;99607.91;5032367;28;20037;-73
2023/04/13 05:13:57;;;;;;;15.35;2.40;;;;;;;3.65;100.00;99610.91;5031320;28;20044;-73
2023/04/13 05:16:23;;;;;;;14.07;2.83;;;;;;;3.65;100.00;99611.78;5034972;28;20037;-73
2023/04/13 05:18:48;;;;;;;12.07;2.42;;;;;;;3.64;100.00;99612.03;5002072;28;20030;-73
2023/04/13 05:21:14;;;;;;;14.85;2.40;;;;;;;3.62;100.00;99609.53;5043340;28;20505;-73
2023/04/13 05:23:40;;;;;;;11.27;2.20;;;;;;;3.63;100.00;99608.47;5000539;28;20042;-73
2023/04/13 05:26:07;;;;;;;14.70;3.42;;;;;;;3.63;100.00;99613.13;5014338;28;20034;-73
2023/04/13 05:28:34;;;;;;;17.60;3.38;;;;;;;3.55;100.00;99606.25;5016847;28;20080;-73
2023/04/13 05:31:03;;;;;;;7.57;2.35;;;;;;;3.53;100.00;99609.25;5052066;28;20040;-74
2023/04/13 05:33:29;;;;;;;12.90;2.70;;;;;;;3.52;100.00;99607.59;5005309;28;20048;-73
2023/04/13 05:35:55;;;;;;;17.45;3.03;;;;;;;3.51;100.00;99605.97;5014517;28;20037;-73
2023/04/13 05:38:21;;;;;;;14.27;2.55;;;;;;;3.51;100.00;99613.34;5047710;28;20414;-73
2023/04/13 05:40:47;;;;;;;16.13;2.50;;;;;;;3.54;100.00;99615.59;5050916;28;20041;-73
2023/04/13 05:43:13;;;;;;;13.23;2.25;;;;;;;3.53;100.00;99611.97;5001700;28;20041;-73
2023/04/13 05:45:38;;;;;;;15.25;2.58;;;;;;;3.53;100.00;99624.91;5001490;28;20032;-73
2023/04/13 05:48:04;;;;;;;13.30;2.58;;;;;;;3.59;100.00;99618.31;5001691;28;20033;-73
2023/04/13 05:50:30;;;;;;;13.10;2.15;;;;;;;3.56;100.00;99629.84;5018499;28;20076;-73
2023/04/13 05:52:58;;;;;;;13.77;2.42;;;;;;;3.61;100.00;99627.13;5001423;28;20034;-73
2023/04/13 05:55:24;;;;;;;13.07;2.17;;;;;;;3.61;100.00;99627.13;5002265;28;20057;-74
2023/04/13 05:57:50;;;;;;;13.77;2.13;;;;;;;3.67;100.00;99622.47;5005726;28;20046;-74
2023/04/13 06:00:17;;;;;;;9.13;2.47;;;;;;;3.75;100.00;99619.19;5002109;28;20033;-74
2023/04/13 06:02:44;;;;;;;12.32;1.75;;;;;;;3.80;100.00;99619.22;5034425;28;20067;-74
2023/04/13 06:05:13;;;;;;;14.07;2.22;;;;;;;3.88;100.00;99620.63;5034129;28;20036;-74
2023/04/13 06:07:38;;;;;;;12.65;2.20;;;;;;;3.95;100.00;99630.22;5002418;28;20037;-74
2023/04/13 06:10:05;;;;;;;13.07;2.45;;;;;;;4.03;100.00;99620.63;4987404;28;20037;-74
2023/04/13 06:12:30;;;;;;;17.77;2.35;;;;;;;4.13;100.00;99617.91;5001420;28;20103;-74
2023/04/13 06:14:56;;;;;;;12.93;2.47;;;;;;;4.25;100.00;99621.19;5034336;28;20034;-74
2023/04/13 06:17:21;;;;;;;8.98;1.95;;;;;;;4.38;100.00;99619.03;5015463;28;20033;-74
2023/04/13 06:19:46;;;;;;;13.77;2.17;;;;;;;4.50;100.00;99619.56;5025153;28;20037;-74
2023/04/13 06:22:12;;;;;;;13.15;2.20;;;;;;;4.64;100.00;99623.38;5038398;28;20030;-74
2023/04/13 06:24:37;;;;;;;10.27;1.70;;;;;;;4.79;100.00;99618.97;5034628;28;20063;-74
2023/04/13 06:27:03;;;;;;;13.13;1.85;;;;;;;4.94;100.00;99616.19;5016396;28;20025;-74
2023/04/13 06:29:28;;;;;;;13.10;1.92;;;;;;;5.07;100.00;99625.78;5033730;28;20406;-74
2023/04/13 06:31:54;;;;;;;13.90;2.08;;;;;;;5.22;100.00;99624.94;5017300;28;20057;-74
2023/04/13 06:34:19;;;;;;;13.82;1.83;;;;;;;5.37;100.00;99630.38;4981595;28;20026;-74
2023/04/13 06:36:45;;;;;;;14.32;2.38;;;;;;;5.52;100.00;99627.56;4995080;28;20037;-74
2023/04/13 06:39:11;;;;;;;13.15;2.33;;;;;;;5.67;100.00;99631.38;5045903;28;20037;-74
2023/04/13 06:41:36;;;;;;;13.38;2.03;;;;;;;5.82;100.00;99632.13;5017319;28;20087;-74
2023/04/13 06:44:03;;;;;;;13.80;2.13;;;;;;;5.97;100.00;99625.72;5044691;28;20026;-74
2023/04/13 06:46:28;;;;;;;13.68;1.95;;;;;;;6.14;100.00;99627.25;5002273;28;20033;-74
2023/04/13 06:48:54;;;;;;;12.48;2.13;;;;;;;6.28;100.00;99632.97;5044583;28;20045;-74
2023/04/13 06:51:20;;;;;;;16.02;2.80;;;;;;;6.43;100.00;99630.88;5037959;28;20033;-74
2023/04/13 06:53:45;;;;;;;12.95;2.28;;;;;;;6.59;100.00;99626.06;5034249;28;20081;-74
2023/04/13 06:56:11;;;;;;;8.63;1.73;;;;;;;6.75;100.00;99632.28;5047303;28;20034;-75
2023/04/13 06:58:37;;;;;;;17.67;2.22;;;;;;;6.91;100.00;99635.72;5024813;28;20174;-74
2023/04/13 07:01:03;;;;;;;16.05;2.45;;;;;;;7.07;100.00;99631.69;5064326;28;20030;-74
2023/04/13 07:03:28;;;;;;;12.57;2.03;;;;;;;7.24;100.00;99624.88;5045977;28;20080;-74
2023/04/13 07:05:53;;;;;;;9.27;1.67;;;;;;;7.40;100.00;99629.09;5017376;28;20037;-74
2023/04/13 07:08:19;;;;;;;8.82;1.90;;;;;;;7.56;100.00;99630.56;5029574;28;20033;-74
2023/04/13 07:10:45;;;;;;;14.82;2.00;;;;;;;7.76;100.00;99623.13;5008618;28;20025;-74
2023/04/13 07:13:11;;;;;;;11.45;1.90;;;;;;;7.91;100.00;99613.81;4988114;28;20087;-74
2023/04/13 07:15:36;;;;;;;13.68;2.13;;;;;;;8.12;100.00;99622.63;5033021;28;20034;-74
2023/04/13 07:18:02;;;;;;;11.45;1.60;;;;;;;8.27;100.00;99619.63;5016865;28;20475;-75
2023/04/13 07:20:28;;;;;;;10.98;1.92;;;;;;;8.41;100.00;99619.72;5033127;28;20029;-74
2023/04/13 07:22:53;;;;;;;11.25;1.80;;;;;;;8.61;100.00;99616.63;4987679;28;20022;-74
2023/04/13 07:25:20;;;;;;;10.95;2.08;;;;;;;8.82;100.00;99613.50;5035792;28;20038;-74
2023/04/13 07:27:46;;;;;;;11.23;2.30;;;;;;;8.97;100.00;99624.31;5034761;28;20061;-75
2023/04/13 07:30:12;;;;;;;10.40;2.10;;;;;;;9.16;100.00;99627.81;5048740;28;20034;-74
2023/04/13 07:32:38;;;;;;;6.65;1.75;;;;;;;9.30;100.00;99632.53;5054728;28;20029;-74
2023/04/13 07:35:03;;;;;;;10.45;1.98;;;;;;;9.48;100.00;99639.94;5005160;28;20033;-75
2023/04/13 07:37:29;;;;;;;10.80;2.20;;;;;;;9.65;100.00;99635.72;4987401;28;20029;-75
2023/04/13 07:39:55;;;;;;;11.82;2.05;;;;;;;9.82;100.00;99647.81;5020321;28;20089;-74
2023/04/13 07:42:20;;;;;;;12.65;2.20;;;;;;;10.00;100.00;99650.75;5020596;28;20033;-75
2023/04/13 07:44:45;;;;;;;10.27;2.40;;;;;;;10.16;100.00;99648.47;5020402;28;20036;-74
2023/04/13 07:47:12;;;;;;;13.70;3.13;;;;;;;10.33;100.00;99647.84;5026410;28;20076;-75
2023/04/13 07:49:38;;;;;;;13.70;2.80;;;;;;;10.50;100.00;99653.53;5033283;28;20059;-74
2023/04/13 07:52:03;;;;;;;11.45;2.97;;;;;;;10.65;100.00;99658.72;5046542;28;20032;-75
2023/04/13 07:54:29;;;;;;;14.27;3.60;;;;;;;10.82;100.00;99660.00;5032869;28;20034;-74
2023/04/13 07:56:58;;;;;;;14.57;3.70;;;;;;;10.98;100.00;99657.63;5005043;28;20052;-74
2023/04/13 07:59:24;;;;;;;13.63;3.72;;;;;;;11.12;100.00;99653.63;5032987;28;20038;-75
2023/04/13 08:01:49;;;;;;;15.45;4.05;;;;;;;11.27;100.00;99654.38;5027686;28;20028;-75
2023/04/13 08:04:15;;;;;;;15.48;4.63;;;;;;;11.39;100.00;99652.63;5003461;28;20025;-74
2023/04/13 08:06:40;;;;;;;14.43;5.00;;;;;;;11.57;100.00;99653.50;5037903;28;20039;-75
2023/04/13 08:09:06;;;;;;;16.23;5.72;;;;;;;11.71;100.00;99653.41;5051790;28;20479;-74
2023/04/13 08:11:31;;;;;;;18.40;5.15;;;;;;;11.84;100.00;99657.22;5044239;28;20030;-75
2023/04/13 08:13:57;;;;;;;14.50;5.05;;;;;;;11.96;100.00;99667.75;5033720;28;20033;-74
2023/04/13 08:16:22;;;;;;;15.00;4.47;;;;;;;12.11;100.00;99660.88;5019522;28;20044;-74
2023/04/13 08:18:48;;;;;;;20.17;5.28;;;;;;;12.26;100.00;99657.66;5022796;28;20080;-74
2023/04/13 08:21:14;;;;;;;14.98;4.50;;;;;;;12.41;100.00;99661.91;5038716;28;20033;-74
2023/04/13 08:23:42;;;;;;;18.88;4.45;;;;;;;12.57;100.00;99663.06;5019458;28;20029;-74
2023/04/13 08:26:18;;;;;;;14.68;3.83;;;;;;;12.71;100.00;99655.34;5001814;28;20124;-75
2023/04/13 08:28:43;;;;;;;12.68;3.70;;;;;;;12.90;100.00;99665.34;5003222;28;20032;-74
2023/04/13 08:31:09;;;;;;;12.85;3.75;;;;;;;13.05;100.00;99673.16;5000084;28;20129;-74
2023/04/13 08:33:34;;;;;;;16.40;3.65;;;;;;;13.21;100.00;99672.66;5001286;28;20145;-75
2023/04/13 08:36:00;;;;;;;13.73;3.55;;;;;;;13.35;100.00;99670.50;5016149;28;20045;-75
2023/04/13 08:38:27;;;;;;;10.23;2.88;;;;;;;13.48;99.54;99663.88;5047869;28;20039;-75
2023/04/13 08:40:52;;;;;;;8.80;2.70;;;;;;;13.66;98.06;99669.41;5002903;28;20109;-75
2023/04/13 08:43:18;;;;;;;10.75;2.97;;;;;;;13.79;97.97;99671.97;5034697;28;20021;-75
2023/04/13 08:45:44;;;;;;;10.38;2.97;;;;;;;13.97;96.64;99669.88;5038478;28;20040;-75
2023/04/13 08:48:10;;;;;;;9.45;3.00;;;;;;;14.15;95.81;99666.97;5005523;28;20021;-75
2023/04/13 08:50:36;;;;;;;13.90;2.60;;;;;;;14.30;95.63;99670.00;4999365;28;20038;-75
2023/04/13 08:53:02;;;;;;;9.35;2.50;;;;;;;14.44;90.34;99664.16;5032179;28;20128;-76
2023/04/13 08:55:28;;;;;;;9.77;2.13;;;;;;;14.57;90.92;99658.63;5035353;28;20053;-76
2023/04/13 08:57:53;;;;;;;7.15;1.60;;;;;;;14.69;92.35;99664.31;5002567;28;20499;-76
2023/04/13 09:00:20;;;;;;;10.25;1.75;;;;;;;14.84;90.99;99658.06;4976746;28;20048;-76
2023/04/13 09:02:53;;;;;;;13.48;2.40;;;;;;;14.99;90.33;99665.00;5016050;28;20621;-75
2023/04/13 09:05:20;;;;;;;9.80;1.75;;;;;;;15.12;89.22;99663.88;5034404;28;20478;-76
2023/04/13 09:07:52;;;;;;;6.35;1.42;;;;;;;15.30;86.15;99660.91;5018089;28;20034;-75
2023/04/13 09:10:19;;;;;;;9.77;1.65;;;;;;;15.44;86.38;99658.59;5053948;28;20039;-76
2023/04/13 09:12:45;;;;;;;6.32;1.65;;;;;;;15.62;85.36;99659.19;5020587;28;20434;-76
2023/04/13 09:15:12;;;;;;;6.68;1.17;;;;;;;15.76;83.57;99656.06;5035096;28;20029;-76
2023/04/13 09:17:38;;;;;;;9.68;1.48;;;;;;;15.93;83.42;99666.22;5045484;28;20053;-76
2023/04/13 09:20:11;;;;;;;7.57;1.15;;;;;;;16.07;81.03;99666.69;5035248;28;20557;-76
2023/04/13 09:22:37;;;;;;;6.32;1.27;;;;;;;16.26;80.03;99666.88;5018445;28;20529;-76
2023/04/13 09:25:04;;;;;;;7.05;1.13;;;;;;;16.41;76.60;99661.72;4984873;28;20056;-76
2023/04/13 09:27:30;;;;;;;7.80;1.55;;;;;;;16.60;77.85;99664.69;5015375;28;20056;-76
2023/04/13 09:29:55;;;;;;;6.78;1.20;;;;;;;16.80;76.53;99662.09;4998713;28;20446;-76
2023/04/13 09:32:22;;;;;;;6.28;0.80;;;;;;;16.96;74.26;99660.16;5051487;28;20083;-76
2023/04/13 09:35:03;;;;;;;6.28;1.30;;;;;;;17.07;71.46;99658.47;5021990;28;20034;-76
2023/04/13 09:37:31;;;;;;;7.03;1.33;;;;;;;17.12;70.47;99666.63;5018849;28;20109;-76
2023/04/13 09:40:07;;;;;;;7.95;1.30;;;;;;;17.13;71.11;99659.88;5001688;28;20124;-76
2023/04/13 09:42:32;;;;;;;6.03;1.10;;;;;;;17.14;67.24;99664.28;5034210;28;20021;-76
2023/04/13 09:44:58;;;;;;;6.90;1.13;;;;;;;17.08;65.66;99660.13;5018524;28;20044;-76
2023/04/13 09:47:25;;;;;;;4.88;1.02;;;;;;;17.06;66.88;99670.06;4985338;28;20044;-76
2023/04/13 09:49:50;;;;;;;7.35;1.00;;;;;;;16.96;67.13;99666.59;5017769;28;20391;-76
2023/04/13 09:52:20;;;;;;;7.55;1.20;;;;;;;16.93;67.01;99669.28;5001693;28;20021;-76
2023/04/13 09:54:52;;;;;;;5.90;1.30;;;;;;;16.88;64.32;99670.38;5018174;28;20034;-76
2023/04/13 09:57:29;;;;;;;4.47;1.13;;;;;;;16.82;64.92;99670.97;5003402;28;20026;-75
2023/04/13 09:59:56;;;;;;;5.70;1.08;;;;;;;16.71;63.78;99665.84;5017946;28;20550;-76
2023/04/13 10:02:22;;;;;;;5.90;1.60;;;;;;;16.69;63.97;99668.19;5028557;28;20064;-75
2023/04/13 10:04:47;;;;;;;7.68;1.50;;;;;;;16.62;65.04;99665.16;5033930;28;20018;-76
2023/04/13 10:07:13;;;;;;;4.25;0.95;;;;;;;16.51;63.60;99664.84;5017749;28;20041;-75
2023/04/13 10:09:41;;;;;;;3.97;0.90;;;;;;;16.46;65.00;99658.69;5033534;28;20040;-75
2023/04/13 10:12:09;;;;;;;8.35;1.17;;;;;;;16.38;66.28;99656.81;5004368;28;20109;-76
2023/04/13 10:14:35;;;;;;;4.75;1.00;;;;;;;16.34;66.42;99653.91;5034042;28;20042;-75
2023/04/13 10:17:26;;;;;;;5.10;1.05;;;;;;;16.31;65.11;99652.63;4999900;28;20048;-76
2023/04/13 10:19:52;;;;;;;5.22;0.98;;;;;;;16.34;65.75;99655.91;5031058;28;20022;-75
2023/04/13 10:22:21;;;;;;;4.07;0.63;;;;;;;16.29;64.50;99660.56;5037869;28;20029;-75
2023/04/13 10:24:47;;;;;;;4.35;0.82;;;;;;;16.31;66.23;99649.03;5036881;28;20026;-75
2023/04/13 10:27:20;;;;;;;4.07;0.65;;;;;;;16.31;66.11;99647.03;5016229;28;20033;-75
2023/04/13 10:29:48;;;;;;;3.60;0.60;;;;;;;16.36;67.82;99651.59;5035464;28;20041;-75
2023/04/13 10:32:22;;;;;;;4.05;0.77;;;;;;;16.47;64.78;99644.31;5054727;28;20033;-75
2023/04/13 10:34:47;;;;;;;3.35;0.50;;;;;;;16.61;65.99;99646.72;5021207;28;20021;-75
2023/04/13 10:37:23;;;;;;;4.43;0.57;;;;;;;16.79;67.19;99641.66;5038201;28;20052;-75
2023/04/13 10:39:49;;;;;;;3.42;0.45;;;;;;;16.94;64.83;99624.06;5017434;28;20029;-75
2023/04/13 10:42:14;;;;;;;5.38;0.60;;;;;;;17.09;64.80;99630.06;5037757;28;20042;-76
2023/04/13 10:44:41;;;;;;;2.80;0.60;;;;;;;17.22;62.45;99628.00;5013776;28;20063;-75
2023/04/13 10:47:07;;;;;;;3.05;0.50;;;;;;;17.35;61.62;99632.34;5008819;28;20059;-76
2023/04/13 10:49:33;;;;;;;4.60;0.55;;;;;;;17.43;62.13;99631.38;5004791;28;20050;-75
2023/04/13 10:51:58;;;;;;;3.30;0.77;;;;;;;17.47;61.28;99632.28;5045174;28;20034;-76
2023/04/13 10:54:26;;;;;;;5.97;0.70;;;;;;;17.49;61.23;99627.09;5004160;28;20057;-75
2023/04/13 10:57:03;;;;;;;6.22;0.70;;;;;;;17.55;60.54;99617.25;5027253;28;20037;-76
2023/04/13 10:59:48;;;;;;;6.57;1.10;;;;;;;17.56;60.43;99618.88;5031805;28;20058;-75
2023/04/13 11:02:15;;;;;;;3.55;0.80;;;;;;;17.60;59.21;99613.34;5036531;28;20160;-75
2023/04/13 11:04:42;;;;;;;2.85;0.98;;;;;;;17.67;59.33;99610.72;5036422;28;20175;-75
2023/04/13 11:07:18;;;;;;;3.38;0.77;;;;;;;17.77;57.23;99614.97;5002014;28;20042;-75
2023/04/13 11:09:44;;;;;;;2.75;0.40;;;;;;;17.89;59.29;99603.66;5040346;28;20040;-76
2023/04/13 11:12:16;;;;;;;4.70;0.93;;;;;;;18.05;57.61;99610.06;5022723;28;20088;-75
2023/04/13 11:14:46;;;;;;;4.13;0.77;;;;;;;18.24;58.17;99614.06;5001403;28;20026;-75
2023/04/13 11:17:18;;;;;;;4.20;0.98;;;;;;;18.41;56.05;99612.84;5032720;28;20045;-76
2023/04/13 11:19:51;;;;;;;6.38;0.75;;;;;;;18.54;56.59;99614.31;5027187;28;20418;-75
2023/04/13 11:22:17;;;;;;;3.90;0.73;;;;;;;18.65;55.09;99623.00;5012498;28;20128;-76
2023/04/13 11:24:44;;;;;;;5.90;0.75;;;;;;;18.72;55.19;99625.94;5028568;28;20025;-75
2023/04/13 11:27:22;;;;;;;5.13;0.85;;;;;;;18.69;57.08;99626.69;5000935;28;20037;-76